createdAt,value
2017-05-29T00:02:04.775Z,7.40
2017-05-29T00:04:31.766Z,8.98
2017-05-29T00:06:58.410Z,8.43
2017-05-29T00:09:25.027Z,7.40
2017-05-29T00:11:51.671Z,7.93
2017-05-29T00:14:18.323Z,8.68
2017-05-29T00:16:44.963Z,8.83
2017-05-29T00:19:11.602Z,7.95
2017-05-29T00:21:38.214Z,9.93
2017-05-29T00:24:04.878Z,7.88
2017-05-29T00:26:31.618Z,9.30
2017-05-29T00:28:58.235Z,7.93
2017-05-29T00:31:24.859Z,11.13
2017-05-29T00:33:51.539Z,8.08
2017-05-29T00:36:18.158Z,10.00
2017-05-29T00:38:44.775Z,9.28
2017-05-29T00:41:11.458Z,10.38
2017-05-29T00:43:38.087Z,9.85
2017-05-29T00:46:04.709Z,9.20
2017-05-29T00:48:31.372Z,9.30
2017-05-29T00:50:58.010Z,11.37
2017-05-29T00:53:24.632Z,13.10
2017-05-29T00:55:51.281Z,8.05
2017-05-29T00:58:17.896Z,8.00
2017-05-29T01:00:44.503Z,8.18
2017-05-29T01:03:11.144Z,8.13
2017-05-29T01:05:37.762Z,10.20
2017-05-29T01:08:04.487Z,10.20
2017-05-29T01:10:31.131Z,9.28
2017-05-29T01:12:57.868Z,12.12
2017-05-29T01:15:24.484Z,9.22
2017-05-29T01:17:51.143Z,8.98
2017-05-29T01:20:17.754Z,8.42
2017-05-29T01:22:44.424Z,9.05
2017-05-29T01:25:11.164Z,10.47
2017-05-29T01:27:37.802Z,9.25
2017-05-29T01:30:04.439Z,9.37
2017-05-29T01:32:31.079Z,10.30
2017-05-29T01:34:57.719Z,10.12
2017-05-29T01:37:24.336Z,8.52
2017-05-29T01:39:50.974Z,9.70
2017-05-29T01:42:17.592Z,8.63
2017-05-29T01:44:44.209Z,8.27
2017-05-29T01:47:10.914Z,10.55
2017-05-29T01:49:37.554Z,9.90
2017-05-29T01:52:04.167Z,9.95
2017-05-29T01:54:30.811Z,9.23
2017-05-29T01:56:57.479Z,10.13
2017-05-29T01:59:24.116Z,9.45
2017-05-29T02:01:50.751Z,9.12
2017-05-29T02:04:17.372Z,9.90
2017-05-29T02:06:43.987Z,9.33
2017-05-29T02:09:10.627Z,9.17
2017-05-29T02:11:37.251Z,13.20
2017-05-29T02:14:03.946Z,10.20
2017-05-29T02:16:30.595Z,10.08
2017-05-29T02:18:57.212Z,10.53
2017-05-29T02:21:23.858Z,8.60
2017-05-29T02:23:51.103Z,9.88
2017-05-29T02:26:17.719Z,9.92
2017-05-29T02:28:44.404Z,9.80
2017-05-29T02:31:11.060Z,9.20
2017-05-29T02:33:37.676Z,9.20
2017-05-29T02:36:04.308Z,10.10
2017-05-29T02:38:31.359Z,9.50
2017-05-29T02:40:57.972Z,9.63
2017-05-29T02:43:24.587Z,9.43
2017-05-29T02:45:51.230Z,10.70
2017-05-29T02:48:17.916Z,9.78
2017-05-29T02:50:44.537Z,10.95
2017-05-29T02:53:11.175Z,10.52
2017-05-29T02:55:37.796Z,10.13
2017-05-29T02:58:04.411Z,10.23
2017-05-29T03:00:31.210Z,10.40
2017-05-29T03:02:57.863Z,11.18
2017-05-29T03:05:24.479Z,11.02
2017-05-29T03:07:51.127Z,11.48
2017-05-29T03:10:17.751Z,12.63
2017-05-29T03:12:44.371Z,13.17
2017-05-29T03:15:11.044Z,12.60
2017-05-29T03:17:37.660Z,10.63
2017-05-29T03:20:04.361Z,12.67
2017-05-29T03:22:31.105Z,11.87
2017-05-29T03:24:57.719Z,9.03
2017-05-29T03:27:24.447Z,9.58
2017-05-29T03:29:51.291Z,9.58
2017-05-29T03:32:17.908Z,11.37
2017-05-29T03:34:44.535Z,10.73
2017-05-29T03:37:11.176Z,10.82
2017-05-29T03:39:37.791Z,11.27
2017-05-29T03:42:04.488Z,11.33
2017-05-29T03:44:31.151Z,13.98
2017-05-29T03:46:57.778Z,11.78
2017-05-29T03:49:24.511Z,13.98
2017-05-29T03:51:51.155Z,10.05
2017-05-29T03:54:17.782Z,15.45
2017-05-29T03:56:44.403Z,12.45
2017-05-29T03:59:11.046Z,12.98
2017-05-29T04:01:37.668Z,14.65
2017-05-29T04:04:04.304Z,16.23
2017-05-29T04:06:31.078Z,12.28
2017-05-29T04:08:57.699Z,12.67
2017-05-29T04:11:24.327Z,12.83
2017-05-29T04:13:50.999Z,10.45
2017-05-29T04:16:17.625Z,10.80
2017-05-29T04:18:44.275Z,12.23
2017-05-29T04:21:11.027Z,16.22
2017-05-29T04:23:37.663Z,14.43
2017-05-29T04:26:04.295Z,14.05
2017-05-29T04:28:31.045Z,14.37
2017-05-29T04:30:57.670Z,12.58
2017-05-29T04:33:24.291Z,15.75
2017-05-29T04:35:50.935Z,17.53
2017-05-29T04:38:17.561Z,12.88
2017-05-29T04:40:44.231Z,15.15
2017-05-29T04:43:10.971Z,14.15
2017-05-29T04:45:37.619Z,12.88
2017-05-29T04:48:04.245Z,12.28
2017-05-29T04:50:31.029Z,12.45
2017-05-29T04:52:57.738Z,12.65
2017-05-29T04:55:24.375Z,13.43
2017-05-29T04:57:51.026Z,12.77
2017-05-29T05:00:17.643Z,9.80
2017-05-29T05:02:44.271Z,13.55
2017-05-29T05:05:10.932Z,11.93
2017-05-29T05:07:37.562Z,11.90
2017-05-29T05:10:04.175Z,8.92
2017-05-29T05:12:31.848Z,12.10
2017-05-29T05:14:58.532Z,11.97
2017-05-29T05:17:25.168Z,9.53
2017-05-29T05:19:51.808Z,8.88
2017-05-29T05:22:18.419Z,8.82
2017-05-29T05:24:45.036Z,8.92
2017-05-29T05:27:11.707Z,10.28
2017-05-29T05:29:38.344Z,9.58
2017-05-29T05:32:04.967Z,10.48
2017-05-29T05:34:31.627Z,10.55
2017-05-29T05:36:58.507Z,9.45
2017-05-29T05:39:25.962Z,8.53
2017-05-29T05:41:53.521Z,7.98
2017-05-29T05:44:23.254Z,21.27
2017-05-29T05:46:50.954Z,9.57
2017-05-29T05:49:18.661Z,8.37
2017-05-29T05:51:45.331Z,7.52
2017-05-29T05:54:12.007Z,8.32
2017-05-29T05:56:39.192Z,9.47
2017-05-29T05:59:05.899Z,8.52
2017-05-29T06:01:32.667Z,8.55
2017-05-29T06:04:00.992Z,12.78
2017-05-29T06:06:28.310Z,17.62
2017-05-29T06:08:55.459Z,8.25
2017-05-29T06:11:22.171Z,11.50
2017-05-29T06:13:49.623Z,9.03
2017-05-29T06:16:16.235Z,8.03
2017-05-29T06:18:42.876Z,7.82
2017-05-29T06:21:09.543Z,10.32
2017-05-29T06:23:36.163Z,11.55
2017-05-29T06:26:02.815Z,11.02
2017-05-29T06:28:29.431Z,9.97
2017-05-29T06:30:56.131Z,12.28
2017-05-29T06:33:22.873Z,8.90
2017-05-29T06:35:49.494Z,11.72
2017-05-29T06:38:16.222Z,8.32
2017-05-29T06:40:42.959Z,14.47
2017-05-29T06:43:09.580Z,9.08
2017-05-29T06:45:36.196Z,9.25
2017-05-29T06:48:02.880Z,9.47
2017-05-29T06:50:29.499Z,8.22
2017-05-29T06:52:56.159Z,8.02
2017-05-29T06:55:22.819Z,7.72
2017-05-29T06:57:49.436Z,10.83
2017-05-29T07:00:16.107Z,13.93
2017-05-29T07:02:42.815Z,10.02
2017-05-29T07:05:09.459Z,13.02
2017-05-29T07:07:36.075Z,8.67
2017-05-29T07:10:02.711Z,9.80
2017-05-29T07:12:30.307Z,9.67
2017-05-29T07:14:57.955Z,11.22
2017-05-29T07:17:24.695Z,9.93
2017-05-29T07:19:51.311Z,9.28
2017-05-29T07:22:17.971Z,9.73
2017-05-29T07:24:44.715Z,11.02
2017-05-29T07:27:11.351Z,7.73
2017-05-29T07:29:37.975Z,10.82
2017-05-29T07:32:04.735Z,13.15
2017-05-29T07:34:31.360Z,10.23
2017-05-29T07:36:58.049Z,10.58
2017-05-29T07:39:24.691Z,9.97
2017-05-29T07:41:51.307Z,9.53
2017-05-29T07:44:17.923Z,9.72
2017-05-29T07:46:44.671Z,9.83
2017-05-29T07:49:11.298Z,7.15
2017-05-29T07:51:37.946Z,9.53
2017-05-29T07:54:04.591Z,15.67
2017-05-29T07:56:31.210Z,9.65
2017-05-29T07:58:57.828Z,9.58
2017-05-29T08:01:24.471Z,7.98
2017-05-29T08:03:51.147Z,7.97
2017-05-29T08:06:17.763Z,10.22
2017-05-29T08:08:44.404Z,7.28
2017-05-29T08:11:11.032Z,9.45
2017-05-29T08:13:37.647Z,4.92
2017-05-29T08:16:04.315Z,6.72
2017-05-29T08:18:30.979Z,10.33
2017-05-29T08:20:57.615Z,6.62
2017-05-29T08:23:24.255Z,7.13
2017-05-29T08:25:50.871Z,7.58
2017-05-29T08:28:17.495Z,9.17
2017-05-29T08:30:44.131Z,7.70
2017-05-29T08:33:10.751Z,6.87
2017-05-29T08:35:37.452Z,5.65
2017-05-29T08:38:04.091Z,6.50
2017-05-29T08:40:30.712Z,9.07
2017-05-29T08:42:57.364Z,5.57
2017-05-29T08:45:24.006Z,11.03
2017-05-29T08:47:50.627Z,9.78
2017-05-29T08:50:17.250Z,6.02
2017-05-29T08:52:43.923Z,8.20
2017-05-29T08:55:10.636Z,12.38
2017-05-29T08:57:37.307Z,5.42
2017-05-29T09:00:03.953Z,4.70
2017-05-29T09:02:30.573Z,8.58
2017-05-29T09:04:57.194Z,8.42
2017-05-29T09:07:23.832Z,5.92
2017-05-29T09:09:50.468Z,4.80
2017-05-29T09:12:17.087Z,5.53
2017-05-29T09:14:44.083Z,5.33
2017-05-29T09:17:10.761Z,4.85
2017-05-29T09:19:37.412Z,6.82
2017-05-29T09:22:04.059Z,15.72
2017-05-29T09:24:30.748Z,6.57
2017-05-29T09:26:57.390Z,6.95
2017-05-29T09:29:24.043Z,6.37
2017-05-29T09:31:50.681Z,5.97
2017-05-29T09:34:17.437Z,9.32
2017-05-29T09:36:44.080Z,6.08
2017-05-29T09:39:10.724Z,6.12
2017-05-29T09:41:37.355Z,10.85
2017-05-29T09:44:04.675Z,7.22
2017-05-29T09:46:31.295Z,6.90
2017-05-29T09:48:57.929Z,7.42
2017-05-29T09:51:24.631Z,5.05
2017-05-29T09:53:51.250Z,7.93
2017-05-29T09:56:17.883Z,13.57
2017-05-29T09:58:44.650Z,6.57
2017-05-29T10:01:11.355Z,5.20
2017-05-29T10:03:37.977Z,6.17
2017-05-29T10:06:04.733Z,11.77
2017-05-29T10:08:31.353Z,6.72
2017-05-29T10:10:57.974Z,6.57
2017-05-29T10:13:24.620Z,4.57
2017-05-29T10:15:51.243Z,9.20
2017-05-29T10:18:17.927Z,10.15
2017-05-29T10:20:44.671Z,11.30
2017-05-29T10:23:11.295Z,5.03
2017-05-29T10:25:37.951Z,10.77
2017-05-29T10:28:04.615Z,4.63
2017-05-29T10:30:31.278Z,3.95
2017-05-29T10:32:57.899Z,6.45
2017-05-29T10:35:24.558Z,3.83
2017-05-29T10:37:51.178Z,7.27
2017-05-29T10:40:17.883Z,7.72
2017-05-29T10:42:44.525Z,3.50
2017-05-29T10:45:11.151Z,3.38
2017-05-29T10:47:37.767Z,4.15
2017-05-29T10:50:04.420Z,3.47
2017-05-29T10:52:31.079Z,3.70
2017-05-29T10:54:57.715Z,3.47
2017-05-29T10:57:24.362Z,4.07
2017-05-29T10:59:51.099Z,4.07
2017-05-29T11:02:17.723Z,5.50
2017-05-29T11:04:44.375Z,6.47
2017-05-29T11:07:11.019Z,4.80
2017-05-29T11:09:37.757Z,4.40
2017-05-29T11:12:04.408Z,5.28
2017-05-29T11:14:31.031Z,4.58
2017-05-29T11:16:57.654Z,5.38
2017-05-29T11:19:24.322Z,5.47
2017-05-29T11:21:50.941Z,3.64
2017-05-29T11:24:17.590Z,3.43
2017-05-29T11:26:44.227Z,3.94
2017-05-29T11:29:10.843Z,3.68
2017-05-29T11:31:37.459Z,3.30
2017-05-29T11:34:04.147Z,4.78
2017-05-29T11:36:30.759Z,3.14
2017-05-29T11:38:57.422Z,11.24
2017-05-29T11:41:24.164Z,2.70
2017-05-29T11:43:50.807Z,3.28
2017-05-29T11:46:17.414Z,4.08
2017-05-29T11:48:44.054Z,2.70
2017-05-29T11:51:10.718Z,6.86
2017-05-29T11:53:37.331Z,6.44
2017-05-29T11:56:03.980Z,17.54
2017-05-29T11:58:30.596Z,16.88
2017-05-29T12:00:57.212Z,17.56
2017-05-29T12:03:23.918Z,17.32
2017-05-29T12:05:50.539Z,18.72
2017-05-29T12:08:17.162Z,17.74
2017-05-29T12:10:43.803Z,9.54
2017-05-29T12:13:10.419Z,3.16
2017-05-29T12:15:37.067Z,2.84
2017-05-29T12:18:03.711Z,6.56
2017-05-29T12:20:30.386Z,3.08
2017-05-29T12:22:56.999Z,7.42
2017-05-29T12:25:23.635Z,4.86
2017-05-29T12:27:50.250Z,1.90
2017-05-29T12:30:16.946Z,2.66
2017-05-29T12:32:43.687Z,6.66
2017-05-29T12:35:10.311Z,5.28
2017-05-29T12:37:36.923Z,5.66
2017-05-29T12:40:03.604Z,3.82
2017-05-29T12:42:30.230Z,3.62
2017-05-29T12:44:56.879Z,2.60
2017-05-29T12:47:23.520Z,2.98
2017-05-29T12:49:50.134Z,3.88
2017-05-29T12:52:16.803Z,4.84
2017-05-29T12:54:43.439Z,2.38
2017-05-29T12:57:10.051Z,3.70
2017-05-29T12:59:36.722Z,2.50
2017-05-29T13:02:03.358Z,3.28
2017-05-29T13:04:29.975Z,3.42
2017-05-29T13:06:56.591Z,2.50
2017-05-29T13:09:23.273Z,6.12
2017-05-29T13:11:49.887Z,3.08
2017-05-29T13:14:16.551Z,6.30
2017-05-29T13:16:43.294Z,4.84
2017-05-29T13:19:09.926Z,3.00
2017-05-29T13:21:36.566Z,2.96
2017-05-29T13:24:03.259Z,3.64
2017-05-29T13:26:29.871Z,3.52
2017-05-29T13:28:56.487Z,7.12
2017-05-29T13:31:23.129Z,2.78
2017-05-29T13:33:49.743Z,3.58
2017-05-29T13:36:16.402Z,3.22
2017-05-29T13:38:43.143Z,3.94
2017-05-29T13:41:09.763Z,3.26
2017-05-29T13:43:36.419Z,3.18
2017-05-29T13:46:03.059Z,5.44
2017-05-29T13:48:29.674Z,3.74
2017-05-29T13:50:56.335Z,2.80
2017-05-29T13:53:22.978Z,2.90
2017-05-29T13:55:49.614Z,3.50
2017-05-29T13:58:16.230Z,4.20
2017-05-29T14:00:42.874Z,3.88
2017-05-29T14:03:09.530Z,6.82
2017-05-29T14:05:36.206Z,3.16
2017-05-29T14:08:02.841Z,3.62
2017-05-29T14:10:29.551Z,3.00
2017-05-29T14:12:56.163Z,3.26
2017-05-29T14:15:22.830Z,4.04
2017-05-29T14:17:49.474Z,2.80
2017-05-29T14:20:16.090Z,4.82
2017-05-29T14:22:42.730Z,2.52
2017-05-29T14:25:09.389Z,3.58
2017-05-29T14:27:36.026Z,3.46
2017-05-29T14:30:02.668Z,3.94
2017-05-29T14:32:29.284Z,4.08
2017-05-29T14:34:55.942Z,3.28
2017-05-29T14:37:22.990Z,3.78
2017-05-29T14:39:49.607Z,3.82
2017-05-29T14:42:16.218Z,3.08
2017-05-29T14:44:42.859Z,3.26
2017-05-29T14:47:09.548Z,4.30
2017-05-29T14:49:36.169Z,6.32
2017-05-29T14:52:02.929Z,5.82
2017-05-29T14:54:29.539Z,2.96
2017-05-29T14:56:56.211Z,6.04
2017-05-29T14:59:23.160Z,7.60
2017-05-29T15:01:49.891Z,4.90
2017-05-29T15:04:16.523Z,4.16
2017-05-29T15:06:43.615Z,4.18
2017-05-29T15:09:10.768Z,4.26
2017-05-29T15:11:38.429Z,5.40
2017-05-29T15:14:06.098Z,4.16
2017-05-29T15:16:33.477Z,6.46
2017-05-29T15:19:01.009Z,4.86
2017-05-29T15:21:29.232Z,3.72
2017-05-29T15:23:55.951Z,4.64
2017-05-29T15:26:22.567Z,6.44
2017-05-29T15:28:49.243Z,5.72
2017-05-29T15:31:15.863Z,7.02
2017-05-29T15:33:42.475Z,5.50
2017-05-29T15:36:09.187Z,4.56
2017-05-29T15:38:35.833Z,5.78
2017-05-29T15:41:02.467Z,5.36
2017-05-29T15:43:29.122Z,5.50
2017-05-29T15:45:55.844Z,4.52
2017-05-29T15:48:22.463Z,4.38
2017-05-29T15:50:49.115Z,10.12
2017-05-29T15:53:15.761Z,6.84
2017-05-29T15:55:42.404Z,4.58
2017-05-29T15:58:09.075Z,4.70
2017-05-29T16:00:35.690Z,5.00
2017-05-29T16:03:02.307Z,6.76
2017-05-29T16:05:29.070Z,4.50
2017-05-29T16:07:55.802Z,8.80
2017-05-29T16:10:22.444Z,4.54
2017-05-29T16:12:49.082Z,3.86
2017-05-29T16:15:15.703Z,4.40
2017-05-29T16:17:42.316Z,5.12
2017-05-29T16:20:08.959Z,4.62
2017-05-29T16:22:36.043Z,5.36
2017-05-29T16:25:02.684Z,5.30
2017-05-29T16:27:29.324Z,5.98
2017-05-29T16:29:55.945Z,4.84
2017-05-29T16:32:22.559Z,6.14
2017-05-29T16:34:49.267Z,6.24
2017-05-29T16:37:15.931Z,5.10
2017-05-29T16:39:42.619Z,9.10
2017-05-29T16:42:09.259Z,11.50
2017-05-29T16:44:35.899Z,4.58
2017-05-29T16:47:02.521Z,5.30
2017-05-29T16:49:29.151Z,7.64
2017-05-29T16:51:55.766Z,8.86
2017-05-29T16:54:22.384Z,4.66
2017-05-29T16:56:50.200Z,8.18
2017-05-29T16:59:18.795Z,33.30
2017-05-29T17:01:45.531Z,26.94
2017-05-29T17:04:12.188Z,15.04
2017-05-29T17:06:38.811Z,23.24
2017-05-29T17:09:05.462Z,15.14
2017-05-29T17:11:32.134Z,22.20
2017-05-29T17:13:58.759Z,17.44
2017-05-29T17:16:25.406Z,25.02
2017-05-29T17:18:52.119Z,18.10
2017-05-29T17:21:18.739Z,22.22
2017-05-29T17:23:45.360Z,35.28
2017-05-29T17:26:12.035Z,23.40
2017-05-29T17:28:38.917Z,26.66
2017-05-29T17:31:06.990Z,27.82
2017-05-29T17:33:34.755Z,24.14
2017-05-29T17:36:02.315Z,25.20
2017-05-29T17:38:29.111Z,24.28
2017-05-29T17:40:55.746Z,21.36
2017-05-29T17:43:22.403Z,20.64
2017-05-29T17:45:49.022Z,19.90
2017-05-29T17:48:15.779Z,21.90
2017-05-29T17:50:42.398Z,20.16
2017-05-29T17:53:09.055Z,18.34
2017-05-29T17:55:35.707Z,17.88
2017-05-29T17:58:02.435Z,18.10
2017-05-29T18:00:29.058Z,18.94
2017-05-29T18:02:55.703Z,16.22
2017-05-29T18:05:22.348Z,15.80
2017-05-29T18:07:48.991Z,18.12
2017-05-29T18:10:15.631Z,16.68
2017-05-29T18:12:42.253Z,22.34
2017-05-29T18:15:08.871Z,17.74
2017-05-29T18:17:35.515Z,22.08
2017-05-29T18:20:02.136Z,16.70
2017-05-29T18:22:28.833Z,16.98
2017-05-29T18:24:55.470Z,16.10
2017-05-29T18:27:22.086Z,16.84
2017-05-29T18:29:48.702Z,15.14
2017-05-29T18:32:15.386Z,15.16
2017-05-29T18:34:42.004Z,15.64
2017-05-29T18:37:08.628Z,14.28
2017-05-29T18:39:35.280Z,14.95
2017-05-29T18:42:01.903Z,14.76
2017-05-29T18:44:28.519Z,19.68
2017-05-29T18:46:55.195Z,20.44
2017-05-29T18:49:21.818Z,18.12
2017-05-29T18:51:48.494Z,20.24
2017-05-29T18:54:15.139Z,15.90
2017-05-29T18:56:41.771Z,17.52
2017-05-29T18:59:09.407Z,17.90
2017-05-29T19:01:36.051Z,19.04
2017-05-29T19:04:02.711Z,15.80
2017-05-29T19:06:29.335Z,17.07
2017-05-29T19:08:56.010Z,17.48
2017-05-29T19:11:22.635Z,16.18
2017-05-29T19:13:49.271Z,16.80
2017-05-29T19:16:16.010Z,16.03
2017-05-29T19:18:42.639Z,15.25
2017-05-29T19:21:09.295Z,16.25
2017-05-29T19:23:36.017Z,16.82
2017-05-29T19:26:02.671Z,16.30
2017-05-29T19:28:29.298Z,16.78
2017-05-29T19:30:55.946Z,19.45
2017-05-29T19:33:22.573Z,20.43
2017-05-29T19:35:49.207Z,20.17
2017-05-29T19:38:15.855Z,15.13
2017-05-29T19:40:42.478Z,15.65
2017-05-29T19:43:09.099Z,17.38
2017-05-29T19:45:35.743Z,17.30
2017-05-29T19:48:02.363Z,16.15
2017-05-29T19:50:28.990Z,17.40
2017-05-29T19:52:55.699Z,16.35
2017-05-29T19:55:22.327Z,17.22
2017-05-29T19:57:48.951Z,15.02
2017-05-29T20:00:15.594Z,16.82
2017-05-29T20:02:42.219Z,26.07
2017-05-29T20:05:08.854Z,20.03
2017-05-29T20:07:35.502Z,20.47
2017-05-29T20:10:02.167Z,16.48
2017-05-29T20:12:28.811Z,14.65
2017-05-29T20:14:55.459Z,16.45
2017-05-29T20:17:22.122Z,14.05
2017-05-29T20:19:48.747Z,16.68
2017-05-29T20:22:15.399Z,14.35
2017-05-29T20:24:42.019Z,14.93
2017-05-29T20:27:08.647Z,15.47
2017-05-29T20:29:35.339Z,14.33
2017-05-29T20:32:01.955Z,12.02
2017-05-29T20:34:28.589Z,15.15
2017-05-29T20:36:55.299Z,14.92
2017-05-29T20:39:21.919Z,13.77
2017-05-29T20:41:48.539Z,13.82
2017-05-29T20:44:15.188Z,13.72
2017-05-29T20:46:41.812Z,11.53
2017-05-29T20:49:08.531Z,12.83
2017-05-29T20:51:35.236Z,13.55
2017-05-29T20:54:01.851Z,12.85
2017-05-29T20:56:28.472Z,14.13
2017-05-29T20:58:55.119Z,13.87
2017-05-29T21:01:21.739Z,12.03
2017-05-29T21:03:48.431Z,11.32
2017-05-29T21:06:15.076Z,13.13
2017-05-29T21:08:41.711Z,12.50
2017-05-29T21:11:08.355Z,11.30
2017-05-29T21:13:34.995Z,12.08
2017-05-29T21:16:01.617Z,13.47
2017-05-29T21:18:28.234Z,13.57
2017-05-29T21:20:54.903Z,13.20
2017-05-29T21:23:21.523Z,14.88
2017-05-29T21:25:48.179Z,13.92
2017-05-29T21:28:14.827Z,15.03
2017-05-29T21:30:41.447Z,13.82
2017-05-29T21:33:08.067Z,12.75
2017-05-29T21:35:34.720Z,14.87
2017-05-29T21:38:01.340Z,14.60
2017-05-29T21:40:28.015Z,10.73
2017-05-29T21:42:54.666Z,15.22
2017-05-29T21:45:21.282Z,12.17
2017-05-29T21:47:47.930Z,17.60
2017-05-29T21:50:14.671Z,22.15
2017-05-29T21:52:41.311Z,13.13
2017-05-29T21:55:07.955Z,14.20
2017-05-29T21:57:34.698Z,13.25
2017-05-29T22:00:01.338Z,12.70
2017-05-29T22:02:27.955Z,18.55
2017-05-29T22:04:54.611Z,13.53
2017-05-29T22:07:21.231Z,13.32
2017-05-29T22:09:47.888Z,14.33
2017-05-29T22:12:14.534Z,11.90
2017-05-29T22:14:41.155Z,14.98
2017-05-29T22:17:07.780Z,13.08
2017-05-29T22:19:34.450Z,12.63
2017-05-29T22:22:01.075Z,15.22
2017-05-29T22:24:27.724Z,12.45
2017-05-29T22:26:54.462Z,12.18
2017-05-29T22:29:21.088Z,10.77
2017-05-29T22:31:47.707Z,11.62
2017-05-29T22:34:14.358Z,11.17
2017-05-29T22:36:40.975Z,12.25
2017-05-29T22:39:07.603Z,11.38
2017-05-29T22:41:34.299Z,11.68
2017-05-29T22:44:00.927Z,13.17
2017-05-29T22:46:27.548Z,14.17
2017-05-29T22:48:54.194Z,13.53
2017-05-29T22:51:20.811Z,12.62
2017-05-29T22:53:47.431Z,12.08
2017-05-29T22:56:14.080Z,11.33
2017-05-29T22:58:40.702Z,11.98
2017-05-29T23:01:07.327Z,11.25
2017-05-29T23:03:33.979Z,11.55
2017-05-29T23:06:00.599Z,12.55
2017-05-29T23:08:27.223Z,12.52
2017-05-29T23:10:53.866Z,12.43
2017-05-29T23:13:20.491Z,11.62
2017-05-29T23:15:47.117Z,13.42
2017-05-29T23:18:13.772Z,12.45
2017-05-29T23:20:40.419Z,12.72
2017-05-29T23:23:07.039Z,14.67
2017-05-29T23:25:33.678Z,15.28
2017-05-29T23:28:00.298Z,14.48
2017-05-29T23:30:26.970Z,12.27
2017-05-29T23:32:53.719Z,13.98
2017-05-29T23:35:20.835Z,19.60
2017-05-29T23:37:47.459Z,14.10
2017-05-29T23:40:14.134Z,14.70
2017-05-29T23:42:40.760Z,13.97
2017-05-29T23:45:07.379Z,14.90
2017-05-29T23:47:34.071Z,15.83
2017-05-29T23:50:00.699Z,11.52
2017-05-29T23:52:27.322Z,13.12
2017-05-29T23:54:53.963Z,16.73
2017-05-29T23:57:20.586Z,13.23
2017-05-29T23:59:47.256Z,14.65
